sensor_id;sensor_type;location;lat;lon;timestamp;temperature;humidity
38464;DHT22;24243;51.956;5.902;2022-07-12T00:01:08;24.60;53.80
38464;DHT22;24243;51.956;5.902;2022-07-12T00:03:33;24.60;53.80
38464;DHT22;24243;51.956;5.902;2022-07-12T00:05:59;24.60;53.80
38464;DHT22;24243;51.956;5.902;2022-07-12T00:08:25;24.50;53.70
38464;DHT22;24243;51.956;5.902;2022-07-12T00:10:50;24.60;53.80
38464;DHT22;24243;51.956;5.902;2022-07-12T00:13:16;24.60;53.80
38464;DHT22;24243;51.956;5.902;2022-07-12T00:15:42;24.60;53.80
38464;DHT22;24243;51.956;5.902;2022-07-12T00:18:08;24.60;53.80
38464;DHT22;24243;51.956;5.902;2022-07-12T00:20:34;24.50;53.70
38464;DHT22;24243;51.956;5.902;2022-07-12T00:22:59;24.50;53.70
38464;DHT22;24243;51.956;5.902;2022-07-12T00:25:25;24.60;53.80
38464;DHT22;24243;51.956;5.902;2022-07-12T00:27:51;24.50;53.80
38464;DHT22;24243;51.956;5.902;2022-07-12T00:30:17;24.50;53.80
38464;DHT22;24243;51.956;5.902;2022-07-12T00:32:42;24.50;53.80
38464;DHT22;24243;51.956;5.902;2022-07-12T00:35:08;24.50;53.80
38464;DHT22;24243;51.956;5.902;2022-07-12T00:37:33;24.50;53.80
38464;DHT22;24243;51.956;5.902;2022-07-12T00:39:59;24.50;53.80
38464;DHT22;24243;51.956;5.902;2022-07-12T00:42:25;24.50;53.80
38464;DHT22;24243;51.956;5.902;2022-07-12T00:44:51;24.50;53.80
38464;DHT22;24243;51.956;5.902;2022-07-12T00:47:22;24.50;53.80
38464;DHT22;24243;51.956;5.902;2022-07-12T00:49:50;24.50;53.80
38464;DHT22;24243;51.956;5.902;2022-07-12T00:52:16;24.50;53.80
38464;DHT22;24243;51.956;5.902;2022-07-12T00:54:41;24.50;53.80
38464;DHT22;24243;51.956;5.902;2022-07-12T00:57:08;24.50;53.80
38464;DHT22;24243;51.956;5.902;2022-07-12T00:59:33;24.50;53.80
38464;DHT22;24243;51.956;5.902;2022-07-12T01:01:59;24.50;53.80
38464;DHT22;24243;51.956;5.902;2022-07-12T01:04:24;24.50;53.80
38464;DHT22;24243;51.956;5.902;2022-07-12T01:06:50;24.50;53.80
38464;DHT22;24243;51.956;5.902;2022-07-12T01:09:15;24.50;53.80
38464;DHT22;24243;51.956;5.902;2022-07-12T01:11:41;24.50;53.80
38464;DHT22;24243;51.956;5.902;2022-07-12T01:14:06;24.50;53.80
38464;DHT22;24243;51.956;5.902;2022-07-12T01:16:32;24.50;53.70
38464;DHT22;24243;51.956;5.902;2022-07-12T01:18:58;24.50;53.70
38464;DHT22;24243;51.956;5.902;2022-07-12T01:21:24;24.40;53.70
38464;DHT22;24243;51.956;5.902;2022-07-12T01:23:51;24.50;53.70
38464;DHT22;24243;51.956;5.902;2022-07-12T01:26:17;24.50;53.70
38464;DHT22;24243;51.956;5.902;2022-07-12T01:28:42;24.50;53.70
38464;DHT22;24243;51.956;5.902;2022-07-12T01:31:08;24.50;53.70
38464;DHT22;24243;51.956;5.902;2022-07-12T01:33:33;24.50;53.70
38464;DHT22;24243;51.956;5.902;2022-07-12T01:35:59;24.50;53.70
38464;DHT22;24243;51.956;5.902;2022-07-12T01:38:25;24.50;53.70
38464;DHT22;24243;51.956;5.902;2022-07-12T01:40:51;24.40;53.70
38464;DHT22;24243;51.956;5.902;2022-07-12T01:43:16;24.40;53.70
38464;DHT22;24243;51.956;5.902;2022-07-12T01:45:42;24.40;53.60
38464;DHT22;24243;51.956;5.902;2022-07-12T01:48:08;24.40;53.70
38464;DHT22;24243;51.956;5.902;2022-07-12T01:50:33;24.40;54.30
38464;DHT22;24243;51.956;5.902;2022-07-12T01:53:00;24.40;53.70
38464;DHT22;24243;51.956;5.902;2022-07-12T01:55:25;24.40;53.70
38464;DHT22;24243;51.956;5.902;2022-07-12T01:57:51;24.40;53.70
38464;DHT22;24243;51.956;5.902;2022-07-12T02:00:17;24.40;53.70
38464;DHT22;24243;51.956;5.902;2022-07-12T02:02:45;24.40;53.70
38464;DHT22;24243;51.956;5.902;2022-07-12T02:05:11;24.30;53.60
38464;DHT22;24243;51.956;5.902;2022-07-12T02:07:36;24.30;53.60
38464;DHT22;24243;51.956;5.902;2022-07-12T02:10:04;24.30;53.60
38464;DHT22;24243;51.956;5.902;2022-07-12T02:12:30;24.30;53.60
38464;DHT22;24243;51.956;5.902;2022-07-12T02:14:55;24.40;53.70
38464;DHT22;24243;51.956;5.902;2022-07-12T02:17:21;24.30;53.60
38464;DHT22;24243;51.956;5.902;2022-07-12T02:19:46;24.30;53.60
38464;DHT22;24243;51.956;5.902;2022-07-12T02:22:12;24.30;53.60
38464;DHT22;24243;51.956;5.902;2022-07-12T02:24:38;24.30;53.60
38464;DHT22;24243;51.956;5.902;2022-07-12T02:27:04;24.30;53.60
38464;DHT22;24243;51.956;5.902;2022-07-12T02:29:29;24.30;53.60
38464;DHT22;24243;51.956;5.902;2022-07-12T02:31:55;24.30;53.60
38464;DHT22;24243;51.956;5.902;2022-07-12T02:34:20;24.30;53.60
38464;DHT22;24243;51.956;5.902;2022-07-12T02:36:46;24.30;53.60
38464;DHT22;24243;51.956;5.902;2022-07-12T02:39:11;24.30;53.60
38464;DHT22;24243;51.956;5.902;2022-07-12T02:41:37;24.30;53.60
38464;DHT22;24243;51.956;5.902;2022-07-12T02:44:02;24.30;53.60
38464;DHT22;24243;51.956;5.902;2022-07-12T02:46:28;24.20;53.50
38464;DHT22;24243;51.956;5.902;2022-07-12T02:48:54;24.30;53.60
38464;DHT22;24243;51.956;5.902;2022-07-12T02:51:19;24.20;53.50
38464;DHT22;24243;51.956;5.902;2022-07-12T02:53:45;24.20;53.50
38464;DHT22;24243;51.956;5.902;2022-07-12T02:56:10;24.20;53.50
38464;DHT22;24243;51.956;5.902;2022-07-12T02:58:37;24.20;53.50
38464;DHT22;24243;51.956;5.902;2022-07-12T03:01:03;24.20;53.50
38464;DHT22;24243;51.956;5.902;2022-07-12T03:03:28;24.20;53.50
38464;DHT22;24243;51.956;5.902;2022-07-12T03:05:54;24.20;53.60
38464;DHT22;24243;51.956;5.902;2022-07-12T03:08:19;24.20;53.50
38464;DHT22;24243;51.956;5.902;2022-07-12T03:10:45;24.20;53.50
38464;DHT22;24243;51.956;5.902;2022-07-12T03:13:10;24.20;53.50
38464;DHT22;24243;51.956;5.902;2022-07-12T03:15:36;24.20;53.50
38464;DHT22;24243;51.956;5.902;2022-07-12T03:18:02;24.20;53.50
38464;DHT22;24243;51.956;5.902;2022-07-12T03:20:28;24.20;53.50
38464;DHT22;24243;51.956;5.902;2022-07-12T03:22:54;24.20;53.50
38464;DHT22;24243;51.956;5.902;2022-07-12T03:25:20;24.20;53.50
38464;DHT22;24243;51.956;5.902;2022-07-12T03:27:45;24.20;53.50
38464;DHT22;24243;51.956;5.902;2022-07-12T03:30:11;24.20;53.50
38464;DHT22;24243;51.956;5.902;2022-07-12T03:32:37;24.20;53.60
38464;DHT22;24243;51.956;5.902;2022-07-12T03:35:03;24.20;53.50
38464;DHT22;24243;51.956;5.902;2022-07-12T03:37:41;24.10;53.50
38464;DHT22;24243;51.956;5.902;2022-07-12T03:40:07;24.20;53.50
38464;DHT22;24243;51.956;5.902;2022-07-12T03:42:33;24.10;53.50
38464;DHT22;24243;51.956;5.902;2022-07-12T03:44:58;24.10;53.50
38464;DHT22;24243;51.956;5.902;2022-07-12T03:47:24;24.10;53.50
38464;DHT22;24243;51.956;5.902;2022-07-12T03:49:49;24.10;53.50
38464;DHT22;24243;51.956;5.902;2022-07-12T03:52:15;24.10;53.50
38464;DHT22;24243;51.956;5.902;2022-07-12T03:54:41;24.10;53.50
38464;DHT22;24243;51.956;5.902;2022-07-12T03:57:06;24.10;53.50
38464;DHT22;24243;51.956;5.902;2022-07-12T03:59:42;24.10;53.50
38464;DHT22;24243;51.956;5.902;2022-07-12T04:02:07;24.10;53.50
38464;DHT22;24243;51.956;5.902;2022-07-12T04:04:33;24.10;53.50
38464;DHT22;24243;51.956;5.902;2022-07-12T04:06:58;24.10;53.50
38464;DHT22;24243;51.956;5.902;2022-07-12T04:09:24;24.10;53.50
38464;DHT22;24243;51.956;5.902;2022-07-12T04:11:49;24.10;53.50
38464;DHT22;24243;51.956;5.902;2022-07-12T04:14:15;24.10;53.50
38464;DHT22;24243;51.956;5.902;2022-07-12T04:16:41;24.10;53.60
38464;DHT22;24243;51.956;5.902;2022-07-12T04:19:07;24.10;53.60
38464;DHT22;24243;51.956;5.902;2022-07-12T04:21:34;24.10;53.60
38464;DHT22;24243;51.956;5.902;2022-07-12T04:24:00;24.10;53.60
38464;DHT22;24243;51.956;5.902;2022-07-12T04:26:26;24.10;53.60
38464;DHT22;24243;51.956;5.902;2022-07-12T04:28:51;24.10;53.50
38464;DHT22;24243;51.956;5.902;2022-07-12T04:31:17;24.10;53.50
38464;DHT22;24243;51.956;5.902;2022-07-12T04:33:42;24.10;53.50
38464;DHT22;24243;51.956;5.902;2022-07-12T04:36:08;24.10;53.50
38464;DHT22;24243;51.956;5.902;2022-07-12T04:38:33;24.10;53.50
38464;DHT22;24243;51.956;5.902;2022-07-12T04:40:59;24.10;53.50
38464;DHT22;24243;51.956;5.902;2022-07-12T04:43:24;24.10;53.50
38464;DHT22;24243;51.956;5.902;2022-07-12T04:45:50;24.10;53.50
38464;DHT22;24243;51.956;5.902;2022-07-12T04:48:16;24.10;53.50
38464;DHT22;24243;51.956;5.902;2022-07-12T04:50:41;24.10;53.50
38464;DHT22;24243;51.956;5.902;2022-07-12T04:53:07;24.10;53.50
38464;DHT22;24243;51.956;5.902;2022-07-12T04:55:33;24.10;53.50
38464;DHT22;24243;51.956;5.902;2022-07-12T04:57:58;24.10;53.50
38464;DHT22;24243;51.956;5.902;2022-07-12T05:00:24;24.10;53.50
38464;DHT22;24243;51.956;5.902;2022-07-12T05:02:49;24.10;53.50
38464;DHT22;24243;51.956;5.902;2022-07-12T05:05:15;24.10;53.50
38464;DHT22;24243;51.956;5.902;2022-07-12T05:07:41;24.10;53.60
38464;DHT22;24243;51.956;5.902;2022-07-12T05:10:06;24.10;54.20
38464;DHT22;24243;51.956;5.902;2022-07-12T05:12:34;24.10;53.60
38464;DHT22;24243;51.956;5.902;2022-07-12T05:14:59;24.10;53.70
38464;DHT22;24243;51.956;5.902;2022-07-12T05:17:25;24.00;53.90
38464;DHT22;24243;51.956;5.902;2022-07-12T05:19:50;23.90;54.10
38464;DHT22;24243;51.956;5.902;2022-07-12T05:22:16;23.90;54.30
38464;DHT22;24243;51.956;5.902;2022-07-12T05:24:41;23.80;54.50
38464;DHT22;24243;51.956;5.902;2022-07-12T05:27:07;23.80;54.70
38464;DHT22;24243;51.956;5.902;2022-07-12T05:29:33;23.70;54.70
38464;DHT22;24243;51.956;5.902;2022-07-12T05:31:58;23.70;54.90
38464;DHT22;24243;51.956;5.902;2022-07-12T05:34:26;23.60;54.90
38464;DHT22;24243;51.956;5.902;2022-07-12T05:36:52;23.70;55.10
38464;DHT22;24243;51.956;5.902;2022-07-12T05:39:17;23.60;55.20
38464;DHT22;24243;51.956;5.902;2022-07-12T05:41:43;23.60;55.30
38464;DHT22;24243;51.956;5.902;2022-07-12T05:44:09;23.60;55.40
38464;DHT22;24243;51.956;5.902;2022-07-12T05:46:34;23.60;55.50
38464;DHT22;24243;51.956;5.902;2022-07-12T05:49:02;23.50;55.50
38464;DHT22;24243;51.956;5.902;2022-07-12T05:51:27;23.50;55.60
38464;DHT22;24243;51.956;5.902;2022-07-12T05:54:12;23.50;55.70
38464;DHT22;24243;51.956;5.902;2022-07-12T05:56:37;23.50;55.80
38464;DHT22;24243;51.956;5.902;2022-07-12T05:59:03;23.50;55.90
38464;DHT22;24243;51.956;5.902;2022-07-12T06:01:28;23.50;55.90
38464;DHT22;24243;51.956;5.902;2022-07-12T06:03:54;23.50;56.00
38464;DHT22;24243;51.956;5.902;2022-07-12T06:06:19;23.50;56.00
38464;DHT22;24243;51.956;5.902;2022-07-12T06:08:45;23.50;56.00
38464;DHT22;24243;51.956;5.902;2022-07-12T06:11:11;23.60;56.00
38464;DHT22;24243;51.956;5.902;2022-07-12T06:13:37;23.60;56.00
38464;DHT22;24243;51.956;5.902;2022-07-12T06:16:03;23.60;55.90
38464;DHT22;24243;51.956;5.902;2022-07-12T06:18:31;23.70;55.90
38464;DHT22;24243;51.956;5.902;2022-07-12T06:20:59;23.70;55.90
38464;DHT22;24243;51.956;5.902;2022-07-12T06:23:25;23.70;56.00
38464;DHT22;24243;51.956;5.902;2022-07-12T06:25:50;23.70;56.10
38464;DHT22;24243;51.956;5.902;2022-07-12T06:28:16;23.70;56.10
38464;DHT22;24243;51.956;5.902;2022-07-12T06:30:42;23.70;56.20
38464;DHT22;24243;51.956;5.902;2022-07-12T06:33:07;23.70;56.30
38464;DHT22;24243;51.956;5.902;2022-07-12T06:35:33;23.70;56.30
38464;DHT22;24243;51.956;5.902;2022-07-12T06:37:59;23.70;56.50
38464;DHT22;24243;51.956;5.902;2022-07-12T06:40:25;23.80;56.50
38464;DHT22;24243;51.956;5.902;2022-07-12T06:42:50;23.80;56.50
38464;DHT22;24243;51.956;5.902;2022-07-12T06:45:16;23.80;56.50
38464;DHT22;24243;51.956;5.902;2022-07-12T06:47:42;23.80;56.50
38464;DHT22;24243;51.956;5.902;2022-07-12T06:50:07;23.80;56.60
38464;DHT22;24243;51.956;5.902;2022-07-12T06:52:33;23.80;56.70
38464;DHT22;24243;51.956;5.902;2022-07-12T06:54:59;23.80;56.70
38464;DHT22;24243;51.956;5.902;2022-07-12T06:57:25;23.80;56.70
38464;DHT22;24243;51.956;5.902;2022-07-12T06:59:58;23.80;56.70
38464;DHT22;24243;51.956;5.902;2022-07-12T07:02:23;23.90;56.80
38464;DHT22;24243;51.956;5.902;2022-07-12T07:04:49;23.90;56.80
38464;DHT22;24243;51.956;5.902;2022-07-12T07:07:14;23.90;56.80
38464;DHT22;24243;51.956;5.902;2022-07-12T07:09:40;23.90;56.80
38464;DHT22;24243;51.956;5.902;2022-07-12T07:12:06;23.90;56.80
38464;DHT22;24243;51.956;5.902;2022-07-12T07:14:33;23.90;56.90
38464;DHT22;24243;51.956;5.902;2022-07-12T07:16:58;24.00;56.90
38464;DHT22;24243;51.956;5.902;2022-07-12T07:19:24;24.00;56.80
38464;DHT22;24243;51.956;5.902;2022-07-12T07:21:55;24.10;56.90
38464;DHT22;24243;51.956;5.902;2022-07-12T07:24:21;24.10;56.90
38464;DHT22;24243;51.956;5.902;2022-07-12T07:26:46;24.10;56.80
38464;DHT22;24243;51.956;5.902;2022-07-12T07:29:12;24.10;56.80
38464;DHT22;24243;51.956;5.902;2022-07-12T07:31:56;24.20;56.90
38464;DHT22;24243;51.956;5.902;2022-07-12T07:34:22;24.20;56.80
38464;DHT22;24243;51.956;5.902;2022-07-12T07:36:49;24.20;56.80
38464;DHT22;24243;51.956;5.902;2022-07-12T07:39:15;24.30;56.80
38464;DHT22;24243;51.956;5.902;2022-07-12T07:41:41;24.30;56.80
38464;DHT22;24243;51.956;5.902;2022-07-12T07:44:06;24.30;56.70
38464;DHT22;24243;51.956;5.902;2022-07-12T07:46:32;24.30;56.70
38464;DHT22;24243;51.956;5.902;2022-07-12T07:48:57;24.30;56.60
38464;DHT22;24243;51.956;5.902;2022-07-12T07:51:23;24.30;56.60
38464;DHT22;24243;51.956;5.902;2022-07-12T07:53:48;24.30;56.70
38464;DHT22;24243;51.956;5.902;2022-07-12T07:56:14;24.40;56.70
38464;DHT22;24243;51.956;5.902;2022-07-12T07:58:40;24.40;56.70
38464;DHT22;24243;51.956;5.902;2022-07-12T08:01:05;24.40;56.70
38464;DHT22;24243;51.956;5.902;2022-07-12T08:03:31;24.40;56.70
38464;DHT22;24243;51.956;5.902;2022-07-12T08:05:56;24.50;56.70
38464;DHT22;24243;51.956;5.902;2022-07-12T08:08:23;24.40;56.60
38464;DHT22;24243;51.956;5.902;2022-07-12T08:10:50;24.50;56.60
38464;DHT22;24243;51.956;5.902;2022-07-12T08:13:16;24.50;56.50
38464;DHT22;24243;51.956;5.902;2022-07-12T08:15:42;24.50;56.50
38464;DHT22;24243;51.956;5.902;2022-07-12T08:18:07;24.60;56.50
38464;DHT22;24243;51.956;5.902;2022-07-12T08:20:33;24.60;56.40
38464;DHT22;24243;51.956;5.902;2022-07-12T08:22:59;24.60;56.40
38464;DHT22;24243;51.956;5.902;2022-07-12T08:25:24;24.60;56.30
38464;DHT22;24243;51.956;5.902;2022-07-12T08:27:50;24.60;56.30
38464;DHT22;24243;51.956;5.902;2022-07-12T08:30:16;24.70;56.30
38464;DHT22;24243;51.956;5.902;2022-07-12T08:32:45;24.70;56.20
38464;DHT22;24243;51.956;5.902;2022-07-12T08:35:10;24.70;56.20
38464;DHT22;24243;51.956;5.902;2022-07-12T08:37:36;24.80;56.20
38464;DHT22;24243;51.956;5.902;2022-07-12T08:40:02;24.80;56.10
38464;DHT22;24243;51.956;5.902;2022-07-12T08:42:28;24.80;56.10
38464;DHT22;24243;51.956;5.902;2022-07-12T08:44:56;24.80;56.00
38464;DHT22;24243;51.956;5.902;2022-07-12T08:47:22;24.90;56.00
38464;DHT22;24243;51.956;5.902;2022-07-12T08:52:32;24.90;55.90
38464;DHT22;24243;51.956;5.902;2022-07-12T08:55:00;24.90;55.90
38464;DHT22;24243;51.956;5.902;2022-07-12T08:57:29;24.90;55.90
38464;DHT22;24243;51.956;5.902;2022-07-12T08:59:59;24.90;55.80
38464;DHT22;24243;51.956;5.902;2022-07-12T09:02:25;25.00;55.80
38464;DHT22;24243;51.956;5.902;2022-07-12T09:05:05;25.00;55.70
38464;DHT22;24243;51.956;5.902;2022-07-12T09:07:33;25.00;56.30
38464;DHT22;24243;51.956;5.902;2022-07-12T09:10:02;25.00;55.60
38464;DHT22;24243;51.956;5.902;2022-07-12T09:12:28;25.00;55.50
38464;DHT22;24243;51.956;5.902;2022-07-12T09:14:53;25.10;55.50
38464;DHT22;24243;51.956;5.902;2022-07-12T09:17:22;25.10;55.40
38464;DHT22;24243;51.956;5.902;2022-07-12T09:19:56;25.20;55.40
38464;DHT22;24243;51.956;5.902;2022-07-12T09:22:22;25.20;55.40
38464;DHT22;24243;51.956;5.902;2022-07-12T09:24:48;25.20;55.90
38464;DHT22;24243;51.956;5.902;2022-07-12T09:27:14;25.20;55.30
38464;DHT22;24243;51.956;5.902;2022-07-12T09:29:49;25.20;55.20
38464;DHT22;24243;51.956;5.902;2022-07-12T09:32:14;25.30;55.20
38464;DHT22;24243;51.956;5.902;2022-07-12T09:34:59;25.30;55.20
38464;DHT22;24243;51.956;5.902;2022-07-12T09:37:43;25.30;55.10
38464;DHT22;24243;51.956;5.902;2022-07-12T09:40:09;25.30;55.10
38464;DHT22;24243;51.956;5.902;2022-07-12T09:42:34;25.40;55.10
38464;DHT22;24243;51.956;5.902;2022-07-12T09:45:01;25.40;55.10
38464;DHT22;24243;51.956;5.902;2022-07-12T09:47:26;25.40;55.00
38464;DHT22;24243;51.956;5.902;2022-07-12T09:49:52;25.40;54.90
38464;DHT22;24243;51.956;5.902;2022-07-12T09:52:22;25.50;54.90
38464;DHT22;24243;51.956;5.902;2022-07-12T09:54:52;25.50;54.80
38464;DHT22;24243;51.956;5.902;2022-07-12T09:59:47;25.50;54.70
38464;DHT22;24243;51.956;5.902;2022-07-12T10:02:14;25.60;54.70
38464;DHT22;24243;51.956;5.902;2022-07-12T10:04:41;25.60;54.60
38464;DHT22;24243;51.956;5.902;2022-07-12T10:07:08;25.60;54.60
38464;DHT22;24243;51.956;5.902;2022-07-12T10:09:34;25.70;54.60
38464;DHT22;24243;51.956;5.902;2022-07-12T10:12:01;25.60;54.40
38464;DHT22;24243;51.956;5.902;2022-07-12T10:14:27;25.70;54.40
38464;DHT22;24243;51.956;5.902;2022-07-12T10:16:53;25.70;54.30
38464;DHT22;24243;51.956;5.902;2022-07-12T10:21:48;25.70;54.20
38464;DHT22;24243;51.956;5.902;2022-07-12T10:29:42;25.80;54.10
38464;DHT22;24243;51.956;5.902;2022-07-12T10:32:24;25.80;54.10
38464;DHT22;24243;51.956;5.902;2022-07-12T10:35:00;25.80;54.00
38464;DHT22;24243;51.956;5.902;2022-07-12T10:37:26;25.80;54.00
38464;DHT22;24243;51.956;5.902;2022-07-12T10:42:36;25.90;53.90
38464;DHT22;24243;51.956;5.902;2022-07-12T10:45:12;25.90;53.90
38464;DHT22;24243;51.956;5.902;2022-07-12T10:47:54;25.90;53.80
38464;DHT22;24243;51.956;5.902;2022-07-12T10:50:20;25.90;53.80
38464;DHT22;24243;51.956;5.902;2022-07-12T10:53:21;25.90;53.70
38464;DHT22;24243;51.956;5.902;2022-07-12T10:58:35;26.00;53.60
38464;DHT22;24243;51.956;5.902;2022-07-12T11:01:05;26.00;53.60
38464;DHT22;24243;51.956;5.902;2022-07-12T11:03:32;26.00;53.60
38464;DHT22;24243;51.956;5.902;2022-07-12T11:06:02;26.00;53.50
38464;DHT22;24243;51.956;5.902;2022-07-12T11:08:31;26.00;53.50
38464;DHT22;24243;51.956;5.902;2022-07-12T11:10:57;26.10;53.50
38464;DHT22;24243;51.956;5.902;2022-07-12T11:13:23;26.00;53.40
38464;DHT22;24243;51.956;5.902;2022-07-12T11:15:58;26.00;53.40
38464;DHT22;24243;51.956;5.902;2022-07-12T11:18:28;26.10;53.40
38464;DHT22;24243;51.956;5.902;2022-07-12T11:20:56;26.10;53.30
38464;DHT22;24243;51.956;5.902;2022-07-12T11:23:23;26.10;53.20
38464;DHT22;24243;51.956;5.902;2022-07-12T11:25:50;26.10;53.10
38464;DHT22;24243;51.956;5.902;2022-07-12T11:28:17;26.10;53.10
38464;DHT22;24243;51.956;5.902;2022-07-12T11:30:49;26.20;53.00
38464;DHT22;24243;51.956;5.902;2022-07-12T11:33:15;26.20;52.90
38464;DHT22;24243;51.956;5.902;2022-07-12T11:35:40;26.20;52.80
38464;DHT22;24243;51.956;5.902;2022-07-12T11:38:08;26.20;53.30
38464;DHT22;24243;51.956;5.902;2022-07-12T11:40:34;26.20;52.60
38464;DHT22;24243;51.956;5.902;2022-07-12T11:43:00;26.30;52.60
38464;DHT22;24243;51.956;5.902;2022-07-12T11:45:27;26.30;52.50
38464;DHT22;24243;51.956;5.902;2022-07-12T11:47:53;26.30;52.30
38464;DHT22;24243;51.956;5.902;2022-07-12T11:50:19;26.30;52.20
38464;DHT22;24243;51.956;5.902;2022-07-12T11:52:45;26.40;52.30
38464;DHT22;24243;51.956;5.902;2022-07-12T11:55:10;26.40;52.20
38464;DHT22;24243;51.956;5.902;2022-07-12T11:57:36;26.40;52.20
38464;DHT22;24243;51.956;5.902;2022-07-12T12:02:43;26.40;52.10
38464;DHT22;24243;51.956;5.902;2022-07-12T12:05:08;26.40;52.00
38464;DHT22;24243;51.956;5.902;2022-07-12T12:07:34;26.40;51.90
38464;DHT22;24243;51.956;5.902;2022-07-12T12:10:01;26.40;52.00
38464;DHT22;24243;51.956;5.902;2022-07-12T12:12:27;26.40;51.90
38464;DHT22;24243;51.956;5.902;2022-07-12T12:14:53;26.40;51.90
38464;DHT22;24243;51.956;5.902;2022-07-12T12:17:18;26.40;51.90
38464;DHT22;24243;51.956;5.902;2022-07-12T12:19:44;26.40;51.90
38464;DHT22;24243;51.956;5.902;2022-07-12T12:25:00;26.40;51.80
38464;DHT22;24243;51.956;5.902;2022-07-12T12:27:26;26.40;51.70
38464;DHT22;24243;51.956;5.902;2022-07-12T12:29:52;26.50;51.80
38464;DHT22;24243;51.956;5.902;2022-07-12T12:32:18;26.50;51.70
38464;DHT22;24243;51.956;5.902;2022-07-12T12:37:28;26.50;51.60
38464;DHT22;24243;51.956;5.902;2022-07-12T12:39:53;26.60;51.60
38464;DHT22;24243;51.956;5.902;2022-07-12T12:42:25;26.60;51.60
38464;DHT22;24243;51.956;5.902;2022-07-12T12:44:51;26.60;51.50
38464;DHT22;24243;51.956;5.902;2022-07-12T12:47:16;26.60;51.50
38464;DHT22;24243;51.956;5.902;2022-07-12T12:49:57;26.60;51.50
38464;DHT22;24243;51.956;5.902;2022-07-12T12:52:25;26.60;51.50
38464;DHT22;24243;51.956;5.902;2022-07-12T12:54:52;26.60;51.40
38464;DHT22;24243;51.956;5.902;2022-07-12T12:57:18;26.60;51.40
38464;DHT22;24243;51.956;5.902;2022-07-12T12:59:43;26.60;51.40
38464;DHT22;24243;51.956;5.902;2022-07-12T13:02:09;26.60;51.30
38464;DHT22;24243;51.956;5.902;2022-07-12T13:04:35;26.60;51.30
38464;DHT22;24243;51.956;5.902;2022-07-12T13:07:01;26.70;51.30
38464;DHT22;24243;51.956;5.902;2022-07-12T13:09:27;26.70;51.30
38464;DHT22;24243;51.956;5.902;2022-07-12T13:11:54;26.70;51.30
38464;DHT22;24243;51.956;5.902;2022-07-12T13:14:20;26.70;51.30
38464;DHT22;24243;51.956;5.902;2022-07-12T13:16:46;26.70;51.30
38464;DHT22;24243;51.956;5.902;2022-07-12T13:19:12;26.70;51.40
38464;DHT22;24243;51.956;5.902;2022-07-12T13:21:37;26.70;51.30
38464;DHT22;24243;51.956;5.902;2022-07-12T13:24:03;26.70;51.30
38464;DHT22;24243;51.956;5.902;2022-07-12T13:26:29;26.70;51.20
38464;DHT22;24243;51.956;5.902;2022-07-12T13:28:55;26.70;51.20
38464;DHT22;24243;51.956;5.902;2022-07-12T13:31:20;26.70;51.10
38464;DHT22;24243;51.956;5.902;2022-07-12T13:33:46;26.70;51.10
38464;DHT22;24243;51.956;5.902;2022-07-12T13:36:11;26.70;51.10
38464;DHT22;24243;51.956;5.902;2022-07-12T13:38:37;26.70;51.00
38464;DHT22;24243;51.956;5.902;2022-07-12T13:41:03;26.80;51.00
38464;DHT22;24243;51.956;5.902;2022-07-12T13:43:29;26.80;50.90
38464;DHT22;24243;51.956;5.902;2022-07-12T13:45:55;26.80;50.80
38464;DHT22;24243;51.956;5.902;2022-07-12T13:48:20;26.80;50.80
38464;DHT22;24243;51.956;5.902;2022-07-12T13:50:46;26.80;50.70
38464;DHT22;24243;51.956;5.902;2022-07-12T13:53:13;26.90;50.80
38464;DHT22;24243;51.956;5.902;2022-07-12T13:55:41;26.80;50.70
38464;DHT22;24243;51.956;5.902;2022-07-12T13:58:06;26.80;50.70
38464;DHT22;24243;51.956;5.902;2022-07-12T14:00:32;26.80;50.70
38464;DHT22;24243;51.956;5.902;2022-07-12T14:02:58;26.90;50.70
38464;DHT22;24243;51.956;5.902;2022-07-12T14:05:23;26.90;50.70
38464;DHT22;24243;51.956;5.902;2022-07-12T14:07:49;26.80;50.70
38464;DHT22;24243;51.956;5.902;2022-07-12T14:10:15;26.80;50.70
38464;DHT22;24243;51.956;5.902;2022-07-12T14:12:41;26.80;50.70
38464;DHT22;24243;51.956;5.902;2022-07-12T14:15:07;26.90;50.70
38464;DHT22;24243;51.956;5.902;2022-07-12T14:18:01;26.80;50.60
38464;DHT22;24243;51.956;5.902;2022-07-12T14:20:26;26.90;50.70
38464;DHT22;24243;51.956;5.902;2022-07-12T14:22:52;26.90;50.60
38464;DHT22;24243;51.956;5.902;2022-07-12T14:25:18;26.80;50.50
38464;DHT22;24243;51.956;5.902;2022-07-12T14:27:43;26.80;50.50
38464;DHT22;24243;51.956;5.902;2022-07-12T14:30:12;26.80;50.50
38464;DHT22;24243;51.956;5.902;2022-07-12T14:32:39;26.80;50.50
38464;DHT22;24243;51.956;5.902;2022-07-12T14:35:05;26.80;50.50
38464;DHT22;24243;51.956;5.902;2022-07-12T14:37:31;26.80;50.50
38464;DHT22;24243;51.956;5.902;2022-07-12T14:39:57;26.80;50.50
38464;DHT22;24243;51.956;5.902;2022-07-12T14:42:23;26.80;50.40
38464;DHT22;24243;51.956;5.902;2022-07-12T14:44:48;26.80;50.30
38464;DHT22;24243;51.956;5.902;2022-07-12T14:47:14;26.80;50.30
38464;DHT22;24243;51.956;5.902;2022-07-12T14:49:40;26.80;50.30
38464;DHT22;24243;51.956;5.902;2022-07-12T14:52:06;26.80;50.20
38464;DHT22;24243;51.956;5.902;2022-07-12T14:54:35;26.70;50.10
38464;DHT22;24243;51.956;5.902;2022-07-12T14:57:00;26.80;50.20
38464;DHT22;24243;51.956;5.902;2022-07-12T14:59:26;26.80;50.20
38464;DHT22;24243;51.956;5.902;2022-07-12T15:01:51;26.70;50.10
38464;DHT22;24243;51.956;5.902;2022-07-12T15:04:17;26.70;50.00
38464;DHT22;24243;51.956;5.902;2022-07-12T15:06:43;26.70;50.00
38464;DHT22;24243;51.956;5.902;2022-07-12T15:09:09;26.70;50.00
38464;DHT22;24243;51.956;5.902;2022-07-12T15:11:35;26.80;50.00
38464;DHT22;24243;51.956;5.902;2022-07-12T15:14:01;26.70;50.00
38464;DHT22;24243;51.956;5.902;2022-07-12T15:16:27;26.70;49.90
38464;DHT22;24243;51.956;5.902;2022-07-12T15:18:52;26.70;49.90
38464;DHT22;24243;51.956;5.902;2022-07-12T15:21:18;26.70;49.90
38464;DHT22;24243;51.956;5.902;2022-07-12T15:23:43;26.70;49.90
38464;DHT22;24243;51.956;5.902;2022-07-12T15:26:09;26.70;49.80
38464;DHT22;24243;51.956;5.902;2022-07-12T15:28:35;26.70;49.80
38464;DHT22;24243;51.956;5.902;2022-07-12T15:31:13;26.70;49.80
38464;DHT22;24243;51.956;5.902;2022-07-12T15:33:39;26.70;49.80
38464;DHT22;24243;51.956;5.902;2022-07-12T15:36:05;26.70;50.40
38464;DHT22;24243;51.956;5.902;2022-07-12T15:38:30;26.70;49.80
38464;DHT22;24243;51.956;5.902;2022-07-12T15:40:56;26.70;49.80
38464;DHT22;24243;51.956;5.902;2022-07-12T15:43:22;26.70;49.90
38464;DHT22;24243;51.956;5.902;2022-07-12T15:45:47;26.70;49.90
38464;DHT22;24243;51.956;5.902;2022-07-12T15:48:13;26.70;49.90
38464;DHT22;24243;51.956;5.902;2022-07-12T15:50:38;26.60;49.80
38464;DHT22;24243;51.956;5.902;2022-07-12T15:53:04;26.70;50.00